Baton, North Carolina
Current Conditions -  °F | °C
As of 12:53 PM on Thursday 29 Jan 2015 (Local Time) from KHKY Reporting Station
Scattered Clouds Scattered Clouds  
Wind Chill: 36°   Ceiling: Unl
Heat Index: 44°   Visibility: 10mi
Dew Point: 22°   Wind: 17mph
Humidity: 42%   Direction: 200°SSW
Pressure: 30.17"   Gusts: 26mph
Location:  35.83°N, 81.4147°W
Report Text: KHKY 291753Z 20015G23KT 10SM SCT120 07/M06 A3017 RMK AO2 SLP213 T00671056 10067 21039 58032
Loading
Personal Weather Stations






























Interactive Weather Map New forecast layout! Learn more

10-Day Weather Forecast

Advertisements
Track Severe Weather on mobile